sensor_id;sensor_type;location;lat;lon;timestamp;temperature;humidity
52879;DHT22;38747;53.140;6.498;2023-04-06T00:01:31;2.40;99.90
52879;DHT22;38747;53.140;6.498;2023-04-06T00:03:57;2.40;99.90
52879;DHT22;38747;53.140;6.498;2023-04-06T00:06:23;2.30;99.90
52879;DHT22;38747;53.140;6.498;2023-04-06T00:08:48;2.30;99.90
52879;DHT22;38747;53.140;6.498;2023-04-06T00:11:14;2.30;99.90
52879;DHT22;38747;53.140;6.498;2023-04-06T00:13:42;2.30;99.90
52879;DHT22;38747;53.140;6.498;2023-04-06T00:16:07;2.30;99.90
52879;DHT22;38747;53.140;6.498;2023-04-06T00:18:33;2.20;99.90
52879;DHT22;38747;53.140;6.498;2023-04-06T00:20:59;2.20;99.90
52879;DHT22;38747;53.140;6.498;2023-04-06T00:23:25;2.20;99.90
52879;DHT22;38747;53.140;6.498;2023-04-06T00:25:50;2.10;99.90
52879;DHT22;38747;53.140;6.498;2023-04-06T00:28:16;2.10;99.90
52879;DHT22;38747;53.140;6.498;2023-04-06T00:30:42;2.10;99.90
52879;DHT22;38747;53.140;6.498;2023-04-06T00:33:08;2.10;99.90
52879;DHT22;38747;53.140;6.498;2023-04-06T00:35:34;2.00;99.90
52879;DHT22;38747;53.140;6.498;2023-04-06T00:37:59;2.00;99.90
52879;DHT22;38747;53.140;6.498;2023-04-06T00:40:25;2.00;99.90
52879;DHT22;38747;53.140;6.498;2023-04-06T00:42:53;2.00;99.90
52879;DHT22;38747;53.140;6.498;2023-04-06T00:45:18;2.00;99.90
52879;DHT22;38747;53.140;6.498;2023-04-06T00:47:44;2.00;99.90
52879;DHT22;38747;53.140;6.498;2023-04-06T00:50:09;1.90;99.90
52879;DHT22;38747;53.140;6.498;2023-04-06T00:52:35;1.90;99.90
52879;DHT22;38747;53.140;6.498;2023-04-06T00:55:02;1.90;99.90
52879;DHT22;38747;53.140;6.498;2023-04-06T00:57:28;1.90;99.90
52879;DHT22;38747;53.140;6.498;2023-04-06T00:59:53;1.90;99.90
52879;DHT22;38747;53.140;6.498;2023-04-06T01:02:19;1.90;99.90
52879;DHT22;38747;53.140;6.498;2023-04-06T01:04:45;1.80;99.90
52879;DHT22;38747;53.140;6.498;2023-04-06T01:07:11;1.80;99.90
52879;DHT22;38747;53.140;6.498;2023-04-06T01:09:36;1.80;99.90
52879;DHT22;38747;53.140;6.498;2023-04-06T01:12:02;1.80;99.90
52879;DHT22;38747;53.140;6.498;2023-04-06T01:14:28;1.80;99.90
52879;DHT22;38747;53.140;6.498;2023-04-06T01:16:58;1.80;99.90
52879;DHT22;38747;53.140;6.498;2023-04-06T01:19:24;1.80;99.90
52879;DHT22;38747;53.140;6.498;2023-04-06T01:21:50;1.80;99.90
52879;DHT22;38747;53.140;6.498;2023-04-06T01:24:15;1.80;99.90
52879;DHT22;38747;53.140;6.498;2023-04-06T01:26:42;1.70;99.90
52879;DHT22;38747;53.140;6.498;2023-04-06T01:29:08;1.70;99.90
52879;DHT22;38747;53.140;6.498;2023-04-06T01:31:33;1.70;99.90
52879;DHT22;38747;53.140;6.498;2023-04-06T01:33:59;1.70;99.90
52879;DHT22;38747;53.140;6.498;2023-04-06T01:36:24;1.70;99.90
52879;DHT22;38747;53.140;6.498;2023-04-06T01:38:50;1.70;99.90
52879;DHT22;38747;53.140;6.498;2023-04-06T01:41:16;1.70;99.90
52879;DHT22;38747;53.140;6.498;2023-04-06T01:43:41;1.70;99.90
52879;DHT22;38747;53.140;6.498;2023-04-06T01:46:07;1.70;99.90
52879;DHT22;38747;53.140;6.498;2023-04-06T01:48:33;1.70;99.90
52879;DHT22;38747;53.140;6.498;2023-04-06T01:50:58;1.60;99.90
52879;DHT22;38747;53.140;6.498;2023-04-06T01:53:24;1.70;99.90
52879;DHT22;38747;53.140;6.498;2023-04-06T01:55:50;1.60;99.90
52879;DHT22;38747;53.140;6.498;2023-04-06T01:58:15;1.60;99.90
52879;DHT22;38747;53.140;6.498;2023-04-06T02:00:41;1.60;99.90
52879;DHT22;38747;53.140;6.498;2023-04-06T02:03:07;1.60;99.90
52879;DHT22;38747;53.140;6.498;2023-04-06T02:05:33;1.50;99.90
52879;DHT22;38747;53.140;6.498;2023-04-06T02:08:04;1.50;99.90
52879;DHT22;38747;53.140;6.498;2023-04-06T02:10:30;1.50;99.90
52879;DHT22;38747;53.140;6.498;2023-04-06T02:12:56;1.50;99.90
52879;DHT22;38747;53.140;6.498;2023-04-06T02:15:22;1.50;99.90
52879;DHT22;38747;53.140;6.498;2023-04-06T02:17:47;1.50;99.90
52879;DHT22;38747;53.140;6.498;2023-04-06T02:20:13;1.50;99.90
52879;DHT22;38747;53.140;6.498;2023-04-06T02:22:39;1.50;99.90
52879;DHT22;38747;53.140;6.498;2023-04-06T02:25:05;1.40;99.90
52879;DHT22;38747;53.140;6.498;2023-04-06T02:27:31;1.40;99.90
52879;DHT22;38747;53.140;6.498;2023-04-06T02:29:57;1.40;99.90
52879;DHT22;38747;53.140;6.498;2023-04-06T02:32:22;1.40;99.90
52879;DHT22;38747;53.140;6.498;2023-04-06T02:34:48;1.40;99.90
52879;DHT22;38747;53.140;6.498;2023-04-06T02:37:14;1.30;99.90
52879;DHT22;38747;53.140;6.498;2023-04-06T02:39:40;1.30;99.90
52879;DHT22;38747;53.140;6.498;2023-04-06T02:42:06;1.30;99.90
52879;DHT22;38747;53.140;6.498;2023-04-06T02:44:31;1.30;99.90
52879;DHT22;38747;53.140;6.498;2023-04-06T02:46:57;1.30;99.90
52879;DHT22;38747;53.140;6.498;2023-04-06T02:49:22;1.20;99.90
52879;DHT22;38747;53.140;6.498;2023-04-06T02:51:48;1.20;99.90
52879;DHT22;38747;53.140;6.498;2023-04-06T02:54:14;1.10;99.90
52879;DHT22;38747;53.140;6.498;2023-04-06T02:56:39;1.10;99.90
52879;DHT22;38747;53.140;6.498;2023-04-06T02:59:05;1.00;99.90
52879;DHT22;38747;53.140;6.498;2023-04-06T03:01:31;1.00;99.90
52879;DHT22;38747;53.140;6.498;2023-04-06T03:03:56;1.00;99.90
52879;DHT22;38747;53.140;6.498;2023-04-06T03:06:22;1.00;99.90
52879;DHT22;38747;53.140;6.498;2023-04-06T03:08:48;0.90;99.90
52879;DHT22;38747;53.140;6.498;2023-04-06T03:11:13;0.90;99.90
52879;DHT22;38747;53.140;6.498;2023-04-06T03:13:39;0.90;99.90
52879;DHT22;38747;53.140;6.498;2023-04-06T03:16:05;0.90;99.90
52879;DHT22;38747;53.140;6.498;2023-04-06T03:18:32;0.80;99.90
52879;DHT22;38747;53.140;6.498;2023-04-06T03:20:58;0.80;99.90
52879;DHT22;38747;53.140;6.498;2023-04-06T03:23:25;0.80;99.90
52879;DHT22;38747;53.140;6.498;2023-04-06T03:25:51;0.80;99.90
52879;DHT22;38747;53.140;6.498;2023-04-06T03:28:17;0.70;99.90
52879;DHT22;38747;53.140;6.498;2023-04-06T03:30:42;0.70;99.90
52879;DHT22;38747;53.140;6.498;2023-04-06T03:33:08;0.70;99.90
52879;DHT22;38747;53.140;6.498;2023-04-06T03:35:33;0.70;99.90
52879;DHT22;38747;53.140;6.498;2023-04-06T03:37:59;0.70;99.90
52879;DHT22;38747;53.140;6.498;2023-04-06T03:40:25;0.70;99.90
52879;DHT22;38747;53.140;6.498;2023-04-06T03:42:50;0.60;99.90
52879;DHT22;38747;53.140;6.498;2023-04-06T03:45:16;0.60;99.90
52879;DHT22;38747;53.140;6.498;2023-04-06T03:47:42;0.60;99.90
52879;DHT22;38747;53.140;6.498;2023-04-06T03:50:08;0.60;99.90
52879;DHT22;38747;53.140;6.498;2023-04-06T03:52:34;0.60;99.90
52879;DHT22;38747;53.140;6.498;2023-04-06T03:55:00;0.50;99.90
52879;DHT22;38747;53.140;6.498;2023-04-06T03:57:26;0.50;99.90
52879;DHT22;38747;53.140;6.498;2023-04-06T03:59:52;0.50;99.90
52879;DHT22;38747;53.140;6.498;2023-04-06T04:02:17;0.50;99.90
52879;DHT22;38747;53.140;6.498;2023-04-06T04:04:43;0.50;99.90
52879;DHT22;38747;53.140;6.498;2023-04-06T04:07:08;0.50;99.90
52879;DHT22;38747;53.140;6.498;2023-04-06T04:09:34;0.50;99.90
52879;DHT22;38747;53.140;6.498;2023-04-06T04:11:59;0.50;99.90
52879;DHT22;38747;53.140;6.498;2023-04-06T04:14:28;0.50;99.90
52879;DHT22;38747;53.140;6.498;2023-04-06T04:16:54;0.50;99.90
52879;DHT22;38747;53.140;6.498;2023-04-06T04:19:19;0.50;99.90
52879;DHT22;38747;53.140;6.498;2023-04-06T04:21:46;0.50;99.90
52879;DHT22;38747;53.140;6.498;2023-04-06T04:24:12;0.40;99.90
52879;DHT22;38747;53.140;6.498;2023-04-06T04:26:39;0.40;99.90
52879;DHT22;38747;53.140;6.498;2023-04-06T04:29:05;0.40;99.90
52879;DHT22;38747;53.140;6.498;2023-04-06T04:31:31;0.40;99.90
52879;DHT22;38747;53.140;6.498;2023-04-06T04:33:57;0.40;99.90
52879;DHT22;38747;53.140;6.498;2023-04-06T04:36:23;0.40;99.90
52879;DHT22;38747;53.140;6.498;2023-04-06T04:38:51;0.40;99.90
52879;DHT22;38747;53.140;6.498;2023-04-06T04:41:17;0.40;99.90
52879;DHT22;38747;53.140;6.498;2023-04-06T04:43:42;0.40;99.90
52879;DHT22;38747;53.140;6.498;2023-04-06T04:46:08;0.30;99.90
52879;DHT22;38747;53.140;6.498;2023-04-06T04:48:34;0.30;99.90
52879;DHT22;38747;53.140;6.498;2023-04-06T04:51:00;0.30;99.90
52879;DHT22;38747;53.140;6.498;2023-04-06T04:53:25;0.30;99.90
52879;DHT22;38747;53.140;6.498;2023-04-06T04:55:51;0.30;99.90
52879;DHT22;38747;53.140;6.498;2023-04-06T04:58:17;0.30;99.90
52879;DHT22;38747;53.140;6.498;2023-04-06T05:00:45;0.30;99.90
52879;DHT22;38747;53.140;6.498;2023-04-06T05:03:22;0.30;99.90
52879;DHT22;38747;53.140;6.498;2023-04-06T05:05:49;0.30;99.90
52879;DHT22;38747;53.140;6.498;2023-04-06T05:08:15;0.30;99.90
52879;DHT22;38747;53.140;6.498;2023-04-06T05:10:41;0.30;99.90
52879;DHT22;38747;53.140;6.498;2023-04-06T05:13:07;0.40;99.90
52879;DHT22;38747;53.140;6.498;2023-04-06T05:15:33;0.40;99.90
52879;DHT22;38747;53.140;6.498;2023-04-06T05:18:00;0.40;99.90
52879;DHT22;38747;53.140;6.498;2023-04-06T05:20:26;0.50;99.90
52879;DHT22;38747;53.140;6.498;2023-04-06T05:22:53;0.50;99.90
52879;DHT22;38747;53.140;6.498;2023-04-06T05:25:18;0.50;99.90
52879;DHT22;38747;53.140;6.498;2023-04-06T05:27:46;0.50;99.90
52879;DHT22;38747;53.140;6.498;2023-04-06T05:30:12;0.60;99.90
52879;DHT22;38747;53.140;6.498;2023-04-06T05:32:37;0.70;99.90
52879;DHT22;38747;53.140;6.498;2023-04-06T05:35:03;0.80;99.90
52879;DHT22;38747;53.140;6.498;2023-04-06T05:37:29;1.00;99.90
52879;DHT22;38747;53.140;6.498;2023-04-06T05:39:54;1.10;99.90
52879;DHT22;38747;53.140;6.498;2023-04-06T05:42:20;1.20;99.90
52879;DHT22;38747;53.140;6.498;2023-04-06T05:44:46;1.10;99.90
52879;DHT22;38747;53.140;6.498;2023-04-06T05:47:12;1.20;99.90
52879;DHT22;38747;53.140;6.498;2023-04-06T05:49:37;1.20;99.90
52879;DHT22;38747;53.140;6.498;2023-04-06T05:52:03;1.40;99.90
52879;DHT22;38747;53.140;6.498;2023-04-06T05:54:29;1.60;99.90
52879;DHT22;38747;53.140;6.498;2023-04-06T05:56:55;1.80;99.90
52879;DHT22;38747;53.140;6.498;2023-04-06T05:59:21;2.10;99.90
52879;DHT22;38747;53.140;6.498;2023-04-06T06:01:46;2.30;99.90
52879;DHT22;38747;53.140;6.498;2023-04-06T06:04:12;2.50;99.90
52879;DHT22;38747;53.140;6.498;2023-04-06T06:06:37;2.60;99.90
52879;DHT22;38747;53.140;6.498;2023-04-06T06:09:03;2.70;99.90
52879;DHT22;38747;53.140;6.498;2023-04-06T06:11:30;2.70;99.90
52879;DHT22;38747;53.140;6.498;2023-04-06T06:13:56;3.00;99.90
52879;DHT22;38747;53.140;6.498;2023-04-06T06:16:22;3.30;99.90
52879;DHT22;38747;53.140;6.498;2023-04-06T06:18:48;3.30;99.90
52879;DHT22;38747;53.140;6.498;2023-04-06T06:21:13;3.00;99.90
52879;DHT22;38747;53.140;6.498;2023-04-06T06:23:39;3.00;99.90
52879;DHT22;38747;53.140;6.498;2023-04-06T06:26:05;3.20;99.90
52879;DHT22;38747;53.140;6.498;2023-04-06T06:28:31;3.50;99.90
52879;DHT22;38747;53.140;6.498;2023-04-06T06:30:56;3.90;99.90
52879;DHT22;38747;53.140;6.498;2023-04-06T06:33:24;4.00;99.90
52879;DHT22;38747;53.140;6.498;2023-04-06T06:35:50;3.80;99.90
52879;DHT22;38747;53.140;6.498;2023-04-06T06:38:16;3.60;99.90
52879;DHT22;38747;53.140;6.498;2023-04-06T06:40:43;3.30;99.90
52879;DHT22;38747;53.140;6.498;2023-04-06T06:43:09;3.10;99.90
52879;DHT22;38747;53.140;6.498;2023-04-06T06:45:35;3.00;99.90
52879;DHT22;38747;53.140;6.498;2023-04-06T06:48:13;3.00;99.90
52879;DHT22;38747;53.140;6.498;2023-04-06T06:50:38;3.00;99.90
52879;DHT22;38747;53.140;6.498;2023-04-06T06:53:04;3.00;99.90
52879;DHT22;38747;53.140;6.498;2023-04-06T06:55:29;3.00;99.90
52879;DHT22;38747;53.140;6.498;2023-04-06T06:57:55;3.00;99.90
52879;DHT22;38747;53.140;6.498;2023-04-06T07:00:20;3.10;99.90
52879;DHT22;38747;53.140;6.498;2023-04-06T07:02:47;3.20;99.90
52879;DHT22;38747;53.140;6.498;2023-04-06T07:05:13;3.30;99.90
52879;DHT22;38747;53.140;6.498;2023-04-06T07:07:39;3.30;99.90
52879;DHT22;38747;53.140;6.498;2023-04-06T07:10:05;3.50;99.90
52879;DHT22;38747;53.140;6.498;2023-04-06T07:12:31;3.60;99.90
52879;DHT22;38747;53.140;6.498;2023-04-06T07:14:56;3.70;99.90
52879;DHT22;38747;53.140;6.498;2023-04-06T07:17:22;3.90;99.90
52879;DHT22;38747;53.140;6.498;2023-04-06T07:19:48;3.90;99.90
52879;DHT22;38747;53.140;6.498;2023-04-06T07:22:13;4.00;99.90
52879;DHT22;38747;53.140;6.498;2023-04-06T07:24:39;4.20;99.90
52879;DHT22;38747;53.140;6.498;2023-04-06T07:27:05;4.30;99.90
52879;DHT22;38747;53.140;6.498;2023-04-06T07:29:30;4.40;99.90
52879;DHT22;38747;53.140;6.498;2023-04-06T07:31:56;4.50;99.90
52879;DHT22;38747;53.140;6.498;2023-04-06T07:34:22;4.60;99.90
52879;DHT22;38747;53.140;6.498;2023-04-06T07:36:47;4.70;99.90
52879;DHT22;38747;53.140;6.498;2023-04-06T07:39:13;4.80;99.90
52879;DHT22;38747;53.140;6.498;2023-04-06T07:41:39;5.00;99.90
52879;DHT22;38747;53.140;6.498;2023-04-06T07:44:05;5.10;99.90
52879;DHT22;38747;53.140;6.498;2023-04-06T07:46:31;5.30;99.90
52879;DHT22;38747;53.140;6.498;2023-04-06T07:48:57;5.40;99.90
52879;DHT22;38747;53.140;6.498;2023-04-06T07:51:23;5.50;99.90
52879;DHT22;38747;53.140;6.498;2023-04-06T07:53:50;5.60;99.90
52879;DHT22;38747;53.140;6.498;2023-04-06T07:56:16;5.70;99.90
52879;DHT22;38747;53.140;6.498;2023-04-06T07:58:42;5.80;99.90
52879;DHT22;38747;53.140;6.498;2023-04-06T08:01:08;5.90;99.90
52879;DHT22;38747;53.140;6.498;2023-04-06T08:03:34;6.00;99.90
52879;DHT22;38747;53.140;6.498;2023-04-06T08:06:00;6.10;99.90
52879;DHT22;38747;53.140;6.498;2023-04-06T08:08:35;6.20;99.90
52879;DHT22;38747;53.140;6.498;2023-04-06T08:11:01;6.30;99.90
52879;DHT22;38747;53.140;6.498;2023-04-06T08:13:29;6.40;99.90
52879;DHT22;38747;53.140;6.498;2023-04-06T08:15:55;6.60;99.90
52879;DHT22;38747;53.140;6.498;2023-04-06T08:18:20;6.70;99.90
52879;DHT22;38747;53.140;6.498;2023-04-06T08:20:46;6.80;99.90
52879;DHT22;38747;53.140;6.498;2023-04-06T08:23:12;6.90;99.90
52879;DHT22;38747;53.140;6.498;2023-04-06T08:25:37;7.10;99.90
52879;DHT22;38747;53.140;6.498;2023-04-06T08:28:03;7.20;99.90
52879;DHT22;38747;53.140;6.498;2023-04-06T08:30:29;7.30;99.90
52879;DHT22;38747;53.140;6.498;2023-04-06T08:32:55;7.40;99.90
52879;DHT22;38747;53.140;6.498;2023-04-06T08:35:21;7.60;99.90
52879;DHT22;38747;53.140;6.498;2023-04-06T08:37:46;7.70;99.90
52879;DHT22;38747;53.140;6.498;2023-04-06T08:40:13;7.80;99.90
52879;DHT22;38747;53.140;6.498;2023-04-06T08:42:44;8.00;99.90
52879;DHT22;38747;53.140;6.498;2023-04-06T08:45:13;8.20;99.90
52879;DHT22;38747;53.140;6.498;2023-04-06T08:47:39;8.30;99.90
52879;DHT22;38747;53.140;6.498;2023-04-06T08:50:06;8.50;99.90
52879;DHT22;38747;53.140;6.498;2023-04-06T08:52:33;8.60;99.90
52879;DHT22;38747;53.140;6.498;2023-04-06T08:55:00;8.60;99.90
52879;DHT22;38747;53.140;6.498;2023-04-06T08:57:26;8.70;99.90
52879;DHT22;38747;53.140;6.498;2023-04-06T08:59:53;8.90;99.90
52879;DHT22;38747;53.140;6.498;2023-04-06T09:02:22;9.00;99.90
52879;DHT22;38747;53.140;6.498;2023-04-06T09:04:52;9.10;99.90
52879;DHT22;38747;53.140;6.498;2023-04-06T09:07:19;9.30;99.90
52879;DHT22;38747;53.140;6.498;2023-04-06T09:09:48;9.40;99.90
52879;DHT22;38747;53.140;6.498;2023-04-06T09:14:49;9.70;99.90
52879;DHT22;38747;53.140;6.498;2023-04-06T09:17:28;9.80;99.90
52879;DHT22;38747;53.140;6.498;2023-04-06T09:19:55;9.70;99.90
52879;DHT22;38747;53.140;6.498;2023-04-06T09:22:22;9.90;99.90
52879;DHT22;38747;53.140;6.498;2023-04-06T09:24:51;10.00;99.90
52879;DHT22;38747;53.140;6.498;2023-04-06T09:27:18;10.10;99.90
52879;DHT22;38747;53.140;6.498;2023-04-06T09:29:44;10.20;99.90
52879;DHT22;38747;53.140;6.498;2023-04-06T09:32:11;10.20;99.90
52879;DHT22;38747;53.140;6.498;2023-04-06T09:34:39;10.20;99.90
52879;DHT22;38747;53.140;6.498;2023-04-06T09:37:15;10.30;99.90
52879;DHT22;38747;53.140;6.498;2023-04-06T09:39:41;10.30;99.90
52879;DHT22;38747;53.140;6.498;2023-04-06T09:42:08;10.40;99.90
52879;DHT22;38747;53.140;6.498;2023-04-06T09:44:33;10.40;99.90
52879;DHT22;38747;53.140;6.498;2023-04-06T09:46:59;10.50;99.90
52879;DHT22;38747;53.140;6.498;2023-04-06T09:49:31;10.60;99.90
52879;DHT22;38747;53.140;6.498;2023-04-06T09:52:03;10.60;99.90
52879;DHT22;38747;53.140;6.498;2023-04-06T09:54:30;10.60;99.90
52879;DHT22;38747;53.140;6.498;2023-04-06T09:57:01;10.60;99.90
52879;DHT22;38747;53.140;6.498;2023-04-06T10:00:11;10.60;99.90
52879;DHT22;38747;53.140;6.498;2023-04-06T10:08:12;10.70;99.90
52879;DHT22;38747;53.140;6.498;2023-04-06T10:10:38;10.90;99.90
52879;DHT22;38747;53.140;6.498;2023-04-06T10:13:05;11.10;99.90
52879;DHT22;38747;53.140;6.498;2023-04-06T10:15:31;11.20;99.90
52879;DHT22;38747;53.140;6.498;2023-04-06T10:17:58;11.30;99.90
52879;DHT22;38747;53.140;6.498;2023-04-06T10:20:29;11.40;99.90
52879;DHT22;38747;53.140;6.498;2023-04-06T10:23:06;11.30;99.90
52879;DHT22;38747;53.140;6.498;2023-04-06T10:25:33;11.20;99.90
52879;DHT22;38747;53.140;6.498;2023-04-06T10:28:06;11.20;99.90
52879;DHT22;38747;53.140;6.498;2023-04-06T10:30:34;11.20;99.90
52879;DHT22;38747;53.140;6.498;2023-04-06T10:32:59;11.20;99.90
52879;DHT22;38747;53.140;6.498;2023-04-06T10:35:36;11.20;99.90
52879;DHT22;38747;53.140;6.498;2023-04-06T10:38:04;11.20;99.20
52879;DHT22;38747;53.140;6.498;2023-04-06T10:40:30;11.30;99.90
52879;DHT22;38747;53.140;6.498;2023-04-06T10:43:08;11.40;99.90
52879;DHT22;38747;53.140;6.498;2023-04-06T10:45:34;11.40;99.90
52879;DHT22;38747;53.140;6.498;2023-04-06T10:48:01;11.60;99.90
52879;DHT22;38747;53.140;6.498;2023-04-06T10:50:38;11.70;99.90
52879;DHT22;38747;53.140;6.498;2023-04-06T10:53:05;11.80;99.90
52879;DHT22;38747;53.140;6.498;2023-04-06T10:55:31;11.90;99.90
52879;DHT22;38747;53.140;6.498;2023-04-06T10:57:57;12.10;99.90
52879;DHT22;38747;53.140;6.498;2023-04-06T11:00:23;12.10;99.60
52879;DHT22;38747;53.140;6.498;2023-04-06T11:02:49;12.10;99.90
52879;DHT22;38747;53.140;6.498;2023-04-06T11:05:15;12.10;99.90
52879;DHT22;38747;53.140;6.498;2023-04-06T11:07:41;12.10;99.90
52879;DHT22;38747;53.140;6.498;2023-04-06T11:10:08;12.10;99.90
52879;DHT22;38747;53.140;6.498;2023-04-06T11:12:34;12.20;99.90
52879;DHT22;38747;53.140;6.498;2023-04-06T11:15:03;12.10;99.90
52879;DHT22;38747;53.140;6.498;2023-04-06T11:17:35;12.20;99.90
52879;DHT22;38747;53.140;6.498;2023-04-06T11:20:02;12.30;99.70
52879;DHT22;38747;53.140;6.498;2023-04-06T11:22:28;12.50;99.90
52879;DHT22;38747;53.140;6.498;2023-04-06T11:25:05;12.50;99.90
52879;DHT22;38747;53.140;6.498;2023-04-06T11:27:33;12.60;99.50
52879;DHT22;38747;53.140;6.498;2023-04-06T11:30:00;12.60;98.50
52879;DHT22;38747;53.140;6.498;2023-04-06T11:32:25;12.70;98.80
52879;DHT22;38747;53.140;6.498;2023-04-06T11:34:51;12.70;97.60
52879;DHT22;38747;53.140;6.498;2023-04-06T11:37:17;12.80;99.90
52879;DHT22;38747;53.140;6.498;2023-04-06T11:39:50;12.70;98.90
52879;DHT22;38747;53.140;6.498;2023-04-06T11:42:29;12.70;99.40
52879;DHT22;38747;53.140;6.498;2023-04-06T11:44:59;12.70;98.60
52879;DHT22;38747;53.140;6.498;2023-04-06T11:47:33;12.60;99.90
52879;DHT22;38747;53.140;6.498;2023-04-06T11:50:13;12.60;99.60
52879;DHT22;38747;53.140;6.498;2023-04-06T11:52:40;12.60;99.90
52879;DHT22;38747;53.140;6.498;2023-04-06T11:55:17;12.60;98.50
52879;DHT22;38747;53.140;6.498;2023-04-06T11:57:43;12.60;99.40
52879;DHT22;38747;53.140;6.498;2023-04-06T12:00:11;12.70;99.90
52879;DHT22;38747;53.140;6.498;2023-04-06T12:02:38;12.80;99.90
52879;DHT22;38747;53.140;6.498;2023-04-06T12:05:05;12.80;99.80
52879;DHT22;38747;53.140;6.498;2023-04-06T12:07:31;12.90;98.60
52879;DHT22;38747;53.140;6.498;2023-04-06T12:10:01;12.80;97.50
52879;DHT22;38747;53.140;6.498;2023-04-06T12:12:28;12.80;99.90
52879;DHT22;38747;53.140;6.498;2023-04-06T12:14:54;12.80;99.50
52879;DHT22;38747;53.140;6.498;2023-04-06T12:17:20;12.70;97.50
52879;DHT22;38747;53.140;6.498;2023-04-06T12:19:46;12.60;97.20
52879;DHT22;38747;53.140;6.498;2023-04-06T12:22:12;12.70;97.30
52879;DHT22;38747;53.140;6.498;2023-04-06T12:24:37;12.60;95.40
52879;DHT22;38747;53.140;6.498;2023-04-06T12:27:03;12.60;95.70
52879;DHT22;38747;53.140;6.498;2023-04-06T12:29:29;12.70;99.40
52879;DHT22;38747;53.140;6.498;2023-04-06T12:31:54;12.70;98.30
52879;DHT22;38747;53.140;6.498;2023-04-06T12:34:20;12.70;99.90
52879;DHT22;38747;53.140;6.498;2023-04-06T12:36:46;12.70;99.90
52879;DHT22;38747;53.140;6.498;2023-04-06T12:39:11;12.60;98.70
52879;DHT22;38747;53.140;6.498;2023-04-06T12:41:37;12.60;96.70
52879;DHT22;38747;53.140;6.498;2023-04-06T12:44:05;12.60;99.30
52879;DHT22;38747;53.140;6.498;2023-04-06T12:46:31;12.60;96.80
52879;DHT22;38747;53.140;6.498;2023-04-06T12:48:57;12.60;98.40
52879;DHT22;38747;53.140;6.498;2023-04-06T12:51:24;12.70;96.60
52879;DHT22;38747;53.140;6.498;2023-04-06T12:53:50;12.70;96.70
52879;DHT22;38747;53.140;6.498;2023-04-06T12:56:17;12.70;96.80
52879;DHT22;38747;53.140;6.498;2023-04-06T12:58:44;12.90;97.50
52879;DHT22;38747;53.140;6.498;2023-04-06T13:01:09;12.80;97.10
52879;DHT22;38747;53.140;6.498;2023-04-06T13:03:36;12.80;96.90
52879;DHT22;38747;53.140;6.498;2023-04-06T13:06:02;12.80;98.60
52879;DHT22;38747;53.140;6.498;2023-04-06T13:08:28;12.80;95.30
52879;DHT22;38747;53.140;6.498;2023-04-06T13:10:54;12.70;97.10
52879;DHT22;38747;53.140;6.498;2023-04-06T13:13:25;12.70;96.30
52879;DHT22;38747;53.140;6.498;2023-04-06T13:15:59;12.60;94.90
52879;DHT22;38747;53.140;6.498;2023-04-06T13:18:25;12.70;96.70
52879;DHT22;38747;53.140;6.498;2023-04-06T13:20:51;12.60;96.30
52879;DHT22;38747;53.140;6.498;2023-04-06T13:23:17;12.70;95.50
52879;DHT22;38747;53.140;6.498;2023-04-06T13:25:42;12.70;98.00
52879;DHT22;38747;53.140;6.498;2023-04-06T13:28:09;12.70;96.70
52879;DHT22;38747;53.140;6.498;2023-04-06T13:30:35;12.70;98.20
52879;DHT22;38747;53.140;6.498;2023-04-06T13:33:01;12.70;97.80
52879;DHT22;38747;53.140;6.498;2023-04-06T13:35:27;12.70;99.80
52879;DHT22;38747;53.140;6.498;2023-04-06T13:37:53;12.70;97.30
52879;DHT22;38747;53.140;6.498;2023-04-06T13:40:19;12.60;96.50
52879;DHT22;38747;53.140;6.498;2023-04-06T13:42:44;12.70;99.90
52879;DHT22;38747;53.140;6.498;2023-04-06T13:45:11;12.80;99.90
52879;DHT22;38747;53.140;6.498;2023-04-06T13:47:37;12.80;99.90
52879;DHT22;38747;53.140;6.498;2023-04-06T13:50:03;12.90;99.90
52879;DHT22;38747;53.140;6.498;2023-04-06T13:52:29;12.90;99.90
52879;DHT22;38747;53.140;6.498;2023-04-06T13:54:55;13.00;99.90
52879;DHT22;38747;53.140;6.498;2023-04-06T13:57:21;13.00;99.90
52879;DHT22;38747;53.140;6.498;2023-04-06T13:59:46;13.00;99.90
52879;DHT22;38747;53.140;6.498;2023-04-06T14:02:12;13.10;99.90
52879;DHT22;38747;53.140;6.498;2023-04-06T14:04:38;13.00;99.90
52879;DHT22;38747;53.140;6.498;2023-04-06T14:07:03;13.10;99.90
52879;DHT22;38747;53.140;6.498;2023-04-06T14:09:32;13.10;99.90
52879;DHT22;38747;53.140;6.498;2023-04-06T14:11:58;13.10;99.90
52879;DHT22;38747;53.140;6.498;2023-04-06T14:14:23;13.10;99.90
52879;DHT22;38747;53.140;6.498;2023-04-06T14:16:49;13.10;99.90
52879;DHT22;38747;53.140;6.498;2023-04-06T14:19:16;13.10;99.90
52879;DHT22;38747;53.140;6.498;2023-04-06T14:21:43;12.90;99.90
52879;DHT22;38747;53.140;6.498;2023-04-06T14:24:09;12.90;99.90
52879;DHT22;38747;53.140;6.498;2023-04-06T14:26:35;12.80;99.90
52879;DHT22;38747;53.140;6.498;2023-04-06T14:29:02;12.80;99.90
52879;DHT22;38747;53.140;6.498;2023-04-06T14:31:27;12.70;99.90
52879;DHT22;38747;53.140;6.498;2023-04-06T14:33:56;12.70;99.90
52879;DHT22;38747;53.140;6.498;2023-04-06T14:36:26;12.70;99.90
52879;DHT22;38747;53.140;6.498;2023-04-06T14:38:56;12.60;99.90
52879;DHT22;38747;53.140;6.498;2023-04-06T14:41:23;12.50;99.90
52879;DHT22;38747;53.140;6.498;2023-04-06T14:43:49;12.40;99.90
52879;DHT22;38747;53.140;6.498;2023-04-06T14:46:15;12.30;99.90
52879;DHT22;38747;53.140;6.498;2023-04-06T14:48:46;12.20;99.90
52879;DHT22;38747;53.140;6.498;2023-04-06T14:51:12;12.10;99.90
52879;DHT22;38747;53.140;6.498;2023-04-06T14:53:38;12.10;99.90
52879;DHT22;38747;53.140;6.498;2023-04-06T14:56:04;12.00;99.90
52879;DHT22;38747;53.140;6.498;2023-04-06T14:58:29;11.90;99.90
52879;DHT22;38747;53.140;6.498;2023-04-06T15:00:59;11.80;99.90
52879;DHT22;38747;53.140;6.498;2023-04-06T15:03:26;11.70;99.90
52879;DHT22;38747;53.140;6.498;2023-04-06T15:05:56;11.70;99.90
52879;DHT22;38747;53.140;6.498;2023-04-06T15:08:23;11.60;99.90
52879;DHT22;38747;53.140;6.498;2023-04-06T15:10:49;11.60;99.90
52879;DHT22;38747;53.140;6.498;2023-04-06T15:13:15;11.50;99.90
52879;DHT22;38747;53.140;6.498;2023-04-06T15:15:41;11.30;99.90
52879;DHT22;38747;53.140;6.498;2023-04-06T15:18:11;11.30;99.90
52879;DHT22;38747;53.140;6.498;2023-04-06T15:20:37;11.20;99.90
52879;DHT22;38747;53.140;6.498;2023-04-06T15:23:03;11.20;99.90
52879;DHT22;38747;53.140;6.498;2023-04-06T15:25:30;11.10;99.90
52879;DHT22;38747;53.140;6.498;2023-04-06T15:27:56;11.10;99.90
52879;DHT22;38747;53.140;6.498;2023-04-06T15:30:22;11.00;99.90
52879;DHT22;38747;53.140;6.498;2023-04-06T15:33:00;10.90;99.90
52879;DHT22;38747;53.140;6.498;2023-04-06T15:35:26;10.90;99.90
52879;DHT22;38747;53.140;6.498;2023-04-06T15:37:52;10.80;99.90
52879;DHT22;38747;53.140;6.498;2023-04-06T15:40:18;10.70;99.90
52879;DHT22;38747;53.140;6.498;2023-04-06T15:42:44;10.70;99.90
52879;DHT22;38747;53.140;6.498;2023-04-06T15:45:10;10.70;99.90